Time;durP1;ratioP1;P1;durP2;ratioP2;P2;SDS_P1;SDS_P2;PMS_P1;PMS_P2;Temp;Humidity;BMP_temperature;BMP_pressure;BME280_temperature;BME280_humidity;BME280_pressure;Samples;Min_cycle;Max_cycle;Signal;HPM_P1;HPM_P2
2021/03/14 00:01:53;;;;;;;6.60;2.90;;;;;;;;;;5035853;28;20076;-56
2021/03/14 00:04:20;;;;;;;6.32;3.40;;;;;;;;;;5035711;28;20030;-56
2021/03/14 00:06:47;;;;;;;7.50;3.13;;;;;;;;;;5035621;28;20029;-56
2021/03/14 00:09:14;;;;;;;8.55;3.85;;;;;;;;;;5035743;28;20030;-56
2021/03/14 00:11:40;;;;;;;9.77;4.07;;;;;;;;;;5035656;28;20029;-56
2021/03/14 00:14:07;;;;;;;6.27;4.27;;;;;;;;;;5035680;28;20112;-56
2021/03/14 00:16:34;;;;;;;14.37;4.57;;;;;;;;;;5035460;28;20425;-56
2021/03/14 00:19:01;;;;;;;5.57;4.13;;;;;;;;;;5035503;28;20455;-56
2021/03/14 00:21:27;;;;;;;7.73;4.00;;;;;;;;;;5035446;28;20029;-56
2021/03/14 00:23:54;;;;;;;6.40;4.03;;;;;;;;;;5035412;28;20028;-56
2021/03/14 00:26:21;;;;;;;8.90;4.20;;;;;;;;;;5035327;28;20030;-56
2021/03/14 00:28:48;;;;;;;6.77;4.00;;;;;;;;;;5035424;28;20036;-56
2021/03/14 00:31:14;;;;;;;7.73;3.20;;;;;;;;;;5035349;28;20034;-56
2021/03/14 00:33:41;;;;;;;8.30;3.67;;;;;;;;;;5035175;28;20128;-56
2021/03/14 00:36:08;;;;;;;7.40;3.50;;;;;;;;;;5035340;28;20029;-56
2021/03/14 00:38:35;;;;;;;6.53;3.83;;;;;;;;;;5036290;28;20100;-56
2021/03/14 00:41:02;;;;;;;6.57;3.50;;;;;;;;;;5035108;28;20460;-56
2021/03/14 00:43:29;;;;;;;10.67;4.20;;;;;;;;;;5001220;28;20029;-56
2021/03/14 00:45:55;;;;;;;10.90;3.97;;;;;;;;;;5017316;28;20029;-56
2021/03/14 00:48:22;;;;;;;11.13;4.43;;;;;;;;;;5034941;28;20026;-56
2021/03/14 00:50:49;;;;;;;6.63;3.67;;;;;;;;;;5034694;28;20512;-56
2021/03/14 00:53:19;;;;;;;12.07;3.83;;;;;;;;;;5034013;28;20104;-56
2021/03/14 00:55:46;;;;;;;10.07;3.90;;;;;;;;;;5034999;28;20025;-56
2021/03/14 00:58:13;;;;;;;10.73;4.00;;;;;;;;;;5034849;28;20080;-56
2021/03/14 01:00:40;;;;;;;7.70;4.77;;;;;;;;;;5034518;28;20456;-56
2021/03/14 01:03:07;;;;;;;9.10;4.10;;;;;;;;;;5034809;28;20036;-56
2021/03/14 01:05:33;;;;;;;6.53;4.33;;;;;;;;;;5034689;28;20041;-56
2021/03/14 01:08:00;;;;;;;8.80;4.07;;;;;;;;;;5034674;28;20017;-56
2021/03/14 01:10:27;;;;;;;7.90;3.80;;;;;;;;;;5034686;28;20032;-56
2021/03/14 01:12:54;;;;;;;8.17;4.60;;;;;;;;;;5034620;28;20037;-56
2021/03/14 01:15:21;;;;;;;15.07;4.40;;;;;;;;;;5034489;28;20064;-55
2021/03/14 01:17:48;;;;;;;6.70;4.13;;;;;;;;;;5034409;28;20032;-56
2021/03/14 01:20:16;;;;;;;7.73;4.77;;;;;;;;;;5034357;28;20392;-56
2021/03/14 01:22:43;;;;;;;8.80;4.23;;;;;;;;;;5034363;28;20092;-56
2021/03/14 01:25:10;;;;;;;9.27;4.60;;;;;;;;;;5034308;28;20388;-56
2021/03/14 01:27:37;;;;;;;6.60;4.80;;;;;;;;;;5034238;28;20030;-56
2021/03/14 01:30:05;;;;;;;9.77;5.60;;;;;;;;;;5034258;28;20044;-56
2021/03/14 01:32:31;;;;;;;10.03;5.47;;;;;;;;;;5034066;28;20035;-56
2021/03/14 01:34:58;;;;;;;12.60;5.37;;;;;;;;;;5034066;28;20021;-56
2021/03/14 01:37:57;;;;;;;9.80;6.03;;;;;;;;;;5034022;28;20108;-56
2021/03/14 01:40:30;;;;;;;;;;;;;;;;;;5035006;28;20084;-56
2021/03/14 01:42:57;;;;;;;16.70;6.40;;;;;;;;;;5033843;28;19904;-55
2021/03/14 01:45:25;;;;;;;12.23;6.47;;;;;;;;;;5033985;28;20017;-56
2021/03/14 01:47:53;;;;;;;10.83;5.97;;;;;;;;;;5033846;28;20035;-55
2021/03/14 01:50:21;;;;;;;11.40;5.93;;;;;;;;;;5033732;28;20022;-56
2021/03/14 01:52:48;;;;;;;8.93;5.23;;;;;;;;;;5033699;28;20036;-56
2021/03/14 01:55:16;;;;;;;10.07;5.80;;;;;;;;;;5033644;28;20033;-55
2021/03/14 01:57:43;;;;;;;7.77;5.47;;;;;;;;;;5033527;28;20025;-55
2021/03/14 02:00:11;;;;;;;11.73;6.27;;;;;;;;;;5033614;28;20037;-56
2021/03/14 02:02:38;;;;;;;13.50;6.17;;;;;;;;;;5033418;28;20052;-56
2021/03/14 02:05:06;;;;;;;11.97;6.40;;;;;;;;;;5033638;28;20435;-56
2021/03/14 02:07:33;;;;;;;11.00;5.73;;;;;;;;;;5033386;28;20112;-55
2021/03/14 02:10:01;;;;;;;10.07;5.80;;;;;;;;;;5033344;28;20030;-56
2021/03/14 02:12:32;;;;;;;13.27;6.20;;;;;;;;;;5033380;28;20045;-56
2021/03/14 02:15:03;;;;;;;10.70;6.40;;;;;;;;;;5033504;28;20579;-56
2021/03/14 02:17:31;;;;;;;9.67;6.83;;;;;;;;;;5033137;28;20495;-56
2021/03/14 02:20:09;;;;;;;10.17;6.33;;;;;;;;;;5033180;28;20044;-56
2021/03/14 02:22:36;;;;;;;8.63;5.93;;;;;;;;;;5033081;28;20073;-56
2021/03/14 02:25:07;;;;;;;8.93;5.50;;;;;;;;;;5033343;28;20089;-56
2021/03/14 02:27:34;;;;;;;7.90;5.90;;;;;;;;;;5033163;28;20484;-56
2021/03/14 02:30:00;;;;;;;11.47;6.23;;;;;;;;;;5033036;28;20033;-55
2021/03/14 02:32:27;;;;;;;12.77;6.80;;;;;;;;;;5033030;28;20038;-55
2021/03/14 02:34:56;;;;;;;11.17;6.57;;;;;;;;;;5032937;28;20052;-55
2021/03/14 02:37:24;;;;;;;13.80;6.53;;;;;;;;;;5033049;28;20032;-56
2021/03/14 02:39:57;;;;;;;9.30;6.97;;;;;;;;;;5033967;28;20056;-56
2021/03/14 02:42:24;;;;;;;13.40;6.90;;;;;;;;;;5032984;28;20037;-55
2021/03/14 02:44:52;;;;;;;17.03;7.43;;;;;;;;;;5033028;28;20029;-56
2021/03/14 02:47:22;;;;;;;9.30;6.90;;;;;;;;;;5032873;28;20089;-56
2021/03/14 02:49:52;;;;;;;10.33;7.43;;;;;;;;;;5032941;28;20028;-56
2021/03/14 02:52:19;;;;;;;12.87;7.13;;;;;;;;;;5032891;28;20020;-56
2021/03/14 02:54:47;;;;;;;9.83;6.90;;;;;;;;;;5032729;28;20032;-56
2021/03/14 02:57:15;;;;;;;10.37;7.13;;;;;;;;;;5032762;28;20026;-56
2021/03/14 02:59:42;;;;;;;13.23;7.27;;;;;;;;;;5032749;28;20046;-56
2021/03/14 03:02:09;;;;;;;15.17;7.70;;;;;;;;;;5032849;28;20022;-56
2021/03/14 03:04:36;;;;;;;15.43;7.63;;;;;;;;;;5032719;28;20037;-56
2021/03/14 03:07:03;;;;;;;14.83;7.40;;;;;;;;;;5032519;28;20484;-56
2021/03/14 03:09:31;;;;;;;10.70;7.03;;;;;;;;;;5032640;28;20064;-56
2021/03/14 03:11:58;;;;;;;13.83;7.73;;;;;;;;;;5032648;28;20044;-56
2021/03/14 03:14:26;;;;;;;11.73;6.67;;;;;;;;;;5032714;28;20025;-56
2021/03/14 03:16:53;;;;;;;12.87;7.00;;;;;;;;;;5036334;28;20021;-56
2021/03/14 03:19:21;;;;;;;11.73;5.83;;;;;;;;;;5036588;28;20034;-56
2021/03/14 03:21:48;;;;;;;40.17;7.80;;;;;;;;;;5036497;28;20036;-56
2021/03/14 03:24:16;;;;;;;16.87;5.67;;;;;;;;;;5036520;28;20072;-56
2021/03/14 03:26:46;;;;;;;15.23;5.30;;;;;;;;;;5036465;28;20029;-56
2021/03/14 03:29:16;;;;;;;9.27;5.17;;;;;;;;;;5036426;28;20033;-56
2021/03/14 03:31:43;;;;;;;7.10;5.30;;;;;;;;;;5036491;28;20026;-56
2021/03/14 03:34:10;;;;;;;11.10;4.93;;;;;;;;;;5036458;28;20587;-56
2021/03/14 03:36:38;;;;;;;8.53;5.53;;;;;;;;;;5036319;28;20033;-56
2021/03/14 03:39:08;;;;;;;10.20;4.87;;;;;;;;;;5037420;28;20396;-56
2021/03/14 03:41:38;;;;;;;12.77;6.50;;;;;;;;;;5036395;28;20030;-56
2021/03/14 03:44:05;;;;;;;9.43;4.87;;;;;;;;;;5036128;28;20445;-56
2021/03/14 03:46:33;;;;;;;9.30;5.30;;;;;;;;;;5036153;28;20384;-56
2021/03/14 03:48:59;;;;;;;14.77;6.90;;;;;;;;;;5036170;28;20109;-56
2021/03/14 03:51:27;;;;;;;13.17;6.27;;;;;;;;;;5036013;28;20033;-55
2021/03/14 03:53:57;;;;;;;10.03;5.90;;;;;;;;;;5036124;28;20108;-56
2021/03/14 03:56:24;;;;;;;9.70;5.40;;;;;;;;;;5035925;28;20025;-56
2021/03/14 03:58:51;;;;;;;7.63;5.20;;;;;;;;;;5035898;28;20571;-56
2021/03/14 04:01:18;;;;;;;6.53;4.60;;;;;;;;;;5017863;28;20476;-56
2021/03/14 04:03:46;;;;;;;11.87;5.07;;;;;;;;;;5035883;28;20032;-56
2021/03/14 04:06:16;;;;;;;13.70;5.67;;;;;;;;;;5035829;28;20029;-56
2021/03/14 04:08:44;;;;;;;9.00;4.77;;;;;;;;;;5035605;28;20026;-56
2021/03/14 04:11:13;;;;;;;8.60;5.70;;;;;;;;;;5035911;28;20389;-56
2021/03/14 04:13:41;;;;;;;8.30;5.83;;;;;;;;;;5035737;28;20026;-56
2021/03/14 04:16:08;;;;;;;12.37;6.23;;;;;;;;;;5035597;28;20503;-56
2021/03/14 04:18:35;;;;;;;9.20;5.50;;;;;;;;;;5035558;28;20025;-56
2021/03/14 04:21:04;;;;;;;9.17;5.23;;;;;;;;;;5035541;28;20072;-56
2021/03/14 04:23:32;;;;;;;6.67;4.90;;;;;;;;;;5035576;28;20029;-56
2021/03/14 04:25:59;;;;;;;11.90;6.43;;;;;;;;;;5035492;28;20350;-56
2021/03/14 04:28:30;;;;;;;11.67;5.87;;;;;;;;;;5035397;28;20030;-56
2021/03/14 04:30:57;;;;;;;8.50;5.33;;;;;;;;;;5035263;28;20036;-56
2021/03/14 04:33:24;;;;;;;14.43;6.57;;;;;;;;;;5035355;28;20021;-56
2021/03/14 04:35:52;;;;;;;15.50;6.50;;;;;;;;;;5035198;28;20049;-56
2021/03/14 04:38:22;;;;;;;12.37;6.57;;;;;;;;;;5035257;28;20017;-56
2021/03/14 04:40:49;;;;;;;9.67;6.60;;;;;;;;;;5036364;28;20046;-56
2021/03/14 04:43:16;;;;;;;9.73;6.60;;;;;;;;;;5035213;28;20025;-55
2021/03/14 04:45:43;;;;;;;11.47;6.57;;;;;;;;;;5035166;28;20029;-56
2021/03/14 04:48:09;;;;;;;17.53;7.70;;;;;;;;;;5034944;28;20388;-56
2021/03/14 04:50:36;;;;;;;14.23;7.60;;;;;;;;;;5034995;28;20487;-55
2021/03/14 04:53:03;;;;;;;11.43;7.47;;;;;;;;;;5034975;28;20484;-55
2021/03/14 04:55:32;;;;;;;14.63;6.17;;;;;;;;;;5034906;28;20030;-55
2021/03/14 04:58:00;;;;;;;9.63;6.63;;;;;;;;;;5034702;28;20499;-55
2021/03/14 05:00:28;;;;;;;11.33;7.13;;;;;;;;;;5034689;28;20044;-56
2021/03/14 05:02:59;;;;;;;12.03;7.13;;;;;;;;;;5034870;28;20100;-55
2021/03/14 05:05:27;;;;;;;11.93;6.53;;;;;;;;;;5034636;28;20044;-55
2021/03/14 05:07:54;;;;;;;9.50;6.47;;;;;;;;;;5034599;28;20029;-55
2021/03/14 05:10:22;;;;;;;10.73;6.93;;;;;;;;;;5034632;28;20084;-56
2021/03/14 05:12:50;;;;;;;12.13;6.60;;;;;;;;;;5034504;28;20454;-56
2021/03/14 05:15:31;;;;;;;12.13;6.93;;;;;;;;;;5034552;28;20029;-55
2021/03/14 05:17:58;;;;;;;10.17;6.47;;;;;;;;;;5034312;28;20025;-55
2021/03/14 05:20:27;;;;;;;8.93;5.83;;;;;;;;;;5034219;28;20038;-56
2021/03/14 05:22:55;;;;;;;9.03;5.97;;;;;;;;;;5034312;28;20376;-56
2021/03/14 05:25:22;;;;;;;9.87;5.57;;;;;;;;;;5034251;28;20029;-56
2021/03/14 05:27:50;;;;;;;9.57;5.90;;;;;;;;;;5034329;28;20431;-55
2021/03/14 05:30:37;;;;;;;10.17;5.97;;;;;;;;;;5034192;28;20110;-55
2021/03/14 05:33:03;;;;;;;9.13;5.93;;;;;;;;;;5033954;28;20021;-55
2021/03/14 05:35:31;;;;;;;11.37;6.80;;;;;;;;;;5034110;28;20022;-55
2021/03/14 05:38:00;;;;;;;7.63;5.23;;;;;;;;;;5033467;28;20032;-54
2021/03/14 05:40:28;;;;;;;10.73;5.67;;;;;;;;;;5035427;28;20312;-55
2021/03/14 05:42:55;;;;;;;9.30;5.63;;;;;;;;;;5034107;28;20495;-55
2021/03/14 05:45:22;;;;;;;8.43;5.03;;;;;;;;;;5034046;28;20025;-54
2021/03/14 05:47:49;;;;;;;8.93;6.23;;;;;;;;;;5033923;28;20036;-55
2021/03/14 05:50:18;;;;;;;7.77;5.60;;;;;;;;;;5033547;28;20032;-55
2021/03/14 05:52:45;;;;;;;8.60;5.77;;;;;;;;;;5033542;28;20056;-55
2021/03/14 05:55:16;;;;;;;11.57;6.47;;;;;;;;;;5033597;28;20092;-55
2021/03/14 05:57:43;;;;;;;10.70;6.27;;;;;;;;;;5033591;28;20033;-55
2021/03/14 06:00:11;;;;;;;8.57;5.77;;;;;;;;;;5033516;28;20069;-55
2021/03/14 06:02:39;;;;;;;13.10;6.47;;;;;;;;;;5033693;28;20025;-55
2021/03/14 06:05:06;;;;;;;11.17;6.60;;;;;;;;;;5033485;28;20026;-55
2021/03/14 06:07:33;;;;;;;7.63;6.07;;;;;;;;;;5033414;28;20031;-55
2021/03/14 06:10:00;;;;;;;9.27;5.87;;;;;;;;;;5033409;28;20479;-55
2021/03/14 06:12:27;;;;;;;10.57;5.90;;;;;;;;;;5033563;28;20029;-55
2021/03/14 06:14:53;;;;;;;7.63;5.50;;;;;;;;;;5033392;28;20021;-55
2021/03/14 06:17:20;;;;;;;8.67;6.13;;;;;;;;;;5033147;28;20033;-55
2021/03/14 06:19:47;;;;;;;9.93;6.33;;;;;;;;;;5033281;28;20029;-55
2021/03/14 06:22:20;;;;;;;10.63;5.10;;;;;;;;;;5033312;28;20057;-55
2021/03/14 06:24:48;;;;;;;9.90;5.33;;;;;;;;;;5033045;28;20037;-55
2021/03/14 06:27:33;;;;;;;10.23;5.60;;;;;;;;;;5033155;28;20108;-55
2021/03/14 06:29:59;;;;;;;;;;;;;;;;;;5033423;28;20021;-55
2021/03/14 06:32:26;;;;;;;10.13;5.47;;;;;;;;;;5033202;28;20275;-54
2021/03/14 06:35:13;;;;;;;8.77;5.87;;;;;;;;;;5033155;28;20121;-55
2021/03/14 06:37:40;;;;;;;9.47;5.87;;;;;;;;;;5032950;28;20018;-55
2021/03/14 06:40:16;;;;;;;14.47;6.03;;;;;;;;;;5033587;28;20049;-55
2021/03/14 06:42:43;;;;;;;10.57;5.70;;;;;;;;;;5033110;28;20029;-55
2021/03/14 06:45:12;;;;;;;8.07;5.53;;;;;;;;;;5033020;28;20033;-55
2021/03/14 06:47:42;;;;;;;8.50;5.60;;;;;;;;;;5032791;28;20084;-55
2021/03/14 06:50:10;;;;;;;8.90;5.90;;;;;;;;;;5031888;28;20396;-55
2021/03/14 06:52:37;;;;;;;9.60;6.17;;;;;;;;;;5032915;28;20025;-55
2021/03/14 06:55:05;;;;;;;9.13;6.10;;;;;;;;;;5032824;28;20037;-55
2021/03/14 06:57:31;;;;;;;9.57;6.47;;;;;;;;;;5032667;28;20029;-55
2021/03/14 07:00:00;;;;;;;8.37;6.30;;;;;;;;;;5032786;28;20037;-55
2021/03/14 07:02:27;;;;;;;8.60;4.90;;;;;;;;;;5032750;28;20025;-55
2021/03/14 07:04:55;;;;;;;11.07;5.97;;;;;;;;;;5032658;28;20021;-55
2021/03/14 07:07:24;;;;;;;10.93;5.97;;;;;;;;;;5032667;28;20028;-55
2021/03/14 07:09:55;;;;;;;9.10;5.80;;;;;;;;;;5032736;28;20381;-55
2021/03/14 07:12:35;;;;;;;11.37;6.10;;;;;;;;;;5032582;28;20064;-55
2021/03/14 07:15:11;;;;;;;11.73;6.13;;;;;;;;;;5032678;28;20029;-55
2021/03/14 07:17:38;;;;;;;9.57;5.83;;;;;;;;;;5032616;28;20025;-55
2021/03/14 07:20:07;;;;;;;7.93;6.20;;;;;;;;;;5032444;28;20121;-55
2021/03/14 07:22:34;;;;;;;10.43;5.87;;;;;;;;;;5032508;28;20037;-55
2021/03/14 07:25:01;;;;;;;9.40;5.90;;;;;;;;;;5032619;28;20044;-55
2021/03/14 07:27:29;;;;;;;8.87;5.77;;;;;;;;;;5032503;28;20499;-55
2021/03/14 07:29:57;;;;;;;9.10;5.47;;;;;;;;;;5032481;28;20034;-55
2021/03/14 07:32:24;;;;;;;8.37;5.10;;;;;;;;;;5032555;28;20025;-55
2021/03/14 07:34:51;;;;;;;12.17;5.50;;;;;;;;;;5032509;28;20480;-55
2021/03/14 07:37:18;;;;;;;9.37;5.90;;;;;;;;;;5032458;28;20425;-55
2021/03/14 07:39:47;;;;;;;10.77;6.03;;;;;;;;;;5033848;28;20148;-55
2021/03/14 07:42:14;;;;;;;10.03;5.60;;;;;;;;;;5032534;28;20030;-55
2021/03/14 07:44:41;;;;;;;10.50;5.67;;;;;;;;;;5032407;28;20040;-55
2021/03/14 07:47:08;;;;;;;8.13;5.53;;;;;;;;;;5014587;28;20539;-55
2021/03/14 07:49:35;;;;;;;11.37;6.80;;;;;;;;;;5032404;28;20515;-55
2021/03/14 07:52:04;;;;;;;8.23;5.77;;;;;;;;;;5032415;28;20084;-55
2021/03/14 07:54:38;;;;;;;11.20;6.47;;;;;;;;;;5032404;28;20037;-55
2021/03/14 07:57:05;;;;;;;12.18;5.35;;;;;;;;;;5032342;28;20026;-55
2021/03/14 07:59:33;;;;;;;7.63;5.13;;;;;;;;;;5032165;28;20392;-55
2021/03/14 08:02:18;;;;;;;9.00;5.97;;;;;;;;;;5034570;28;20442;-55
2021/03/14 08:04:48;;;;;;;8.83;5.87;;;;;;;;;;5036021;28;20556;-55
2021/03/14 08:07:15;;;;;;;11.43;6.07;;;;;;;;;;5035811;28;20021;-55
2021/03/14 08:09:49;;;;;;;8.50;5.07;;;;;;;;;;5035756;28;20028;-55
2021/03/14 08:12:26;;;;;;;7.85;5.30;;;;;;;;;;5035707;28;20370;-55
2021/03/14 08:14:57;;;;;;;7.47;5.23;;;;;;;;;;5035729;28;20088;-55
2021/03/14 08:17:27;;;;;;;8.23;5.23;;;;;;;;;;5035699;28;20030;-55
2021/03/14 08:19:54;;;;;;;11.10;5.63;;;;;;;;;;5035411;28;20120;-55
2021/03/14 08:22:39;;;;;;;8.20;5.83;;;;;;;;;;5035416;28;20389;-55
2021/03/14 08:25:19;;;;;;;9.65;5.30;;;;;;;;;;5035773;28;20033;-55
2021/03/14 08:27:46;;;;;;;9.87;5.70;;;;;;;;;;5035309;28;20447;-55
2021/03/14 08:30:33;;;;;;;10.17;5.73;;;;;;;;;;5035367;28;20408;-55
2021/03/14 08:33:21;;;;;;;7.87;5.00;;;;;;;;;;5035323;28;20060;-55
2021/03/14 08:35:49;;;;;;;7.57;5.27;;;;;;;;;;5035305;28;20029;-55
2021/03/14 08:38:35;;;;;;;9.53;5.73;;;;;;;;;;5035290;28;20029;-55
2021/03/14 08:41:20;;;;;;;12.50;5.93;;;;;;;;;;5036408;28;20081;-55
2021/03/14 08:43:55;;;;;;;7.65;5.10;;;;;;;;;;5035218;28;20026;-55
2021/03/14 08:46:22;;;;;;;8.55;5.65;;;;;;;;;;5034960;28;20116;-55
2021/03/14 08:48:49;;;;;;;11.20;5.90;;;;;;;;;;5034927;28;20053;-55
2021/03/14 08:51:15;;;;;;;7.73;5.27;;;;;;;;;;5035009;28;20025;-55
2021/03/14 08:53:42;;;;;;;7.63;5.40;;;;;;;;;;5035263;28;20018;-55
2021/03/14 08:56:09;;;;;;;12.03;6.00;;;;;;;;;;5034910;28;20032;-55
2021/03/14 08:58:36;;;;;;;12.37;5.60;;;;;;;;;;5034939;28;20053;-55
2021/03/14 09:01:07;;;;;;;7.47;5.60;;;;;;;;;;5034829;28;20045;-55
2021/03/14 09:03:46;;;;;;;7.63;5.20;;;;;;;;;;5034663;28;20053;-55
2021/03/14 09:06:27;;;;;;;12.20;5.73;;;;;;;;;;5034615;28;20077;-55
2021/03/14 09:08:57;;;;;;;9.13;5.70;;;;;;;;;;5034677;28;20100;-55
2021/03/14 09:11:43;;;;;;;10.87;5.73;;;;;;;;;;5034703;28;20013;-55
2021/03/14 09:14:20;;;;;;;12.90;7.37;;;;;;;;;;5033723;28;20413;-54
2021/03/14 09:16:49;;;;;;;11.67;7.60;;;;;;;;;;5034357;28;20020;-55
2021/03/14 09:19:30;;;;;;;11.07;7.00;;;;;;;;;;5034292;28;20045;-55
2021/03/14 09:22:01;;;;;;;12.70;8.13;;;;;;;;;;5034621;28;20393;-55
2021/03/14 09:24:29;;;;;;;13.67;8.10;;;;;;;;;;5034407;28;20032;-55
2021/03/14 09:26:59;;;;;;;12.63;8.17;;;;;;;;;;5034255;28;20022;-55
2021/03/14 09:29:46;;;;;;;18.53;8.40;;;;;;;;;;5034204;28;20035;-55
2021/03/14 09:32:25;;;;;;;13.63;7.63;;;;;;;;;;5034201;28;20108;-55
2021/03/14 09:34:53;;;;;;;12.63;7.57;;;;;;;;;;5034261;28;20025;-54
2021/03/14 09:37:32;;;;;;;11.80;7.57;;;;;;;;;;5034075;28;20032;-55
2021/03/14 09:40:15;;;;;;;11.60;7.27;;;;;;;;;;5035270;28;20401;-55
2021/03/14 09:42:43;;;;;;;14.97;7.27;;;;;;;;;;5034054;28;20025;-55
2021/03/14 09:45:14;;;;;;;12.90;8.27;;;;;;;;;;5016239;28;20033;-55
2021/03/14 09:47:59;;;;;;;12.10;7.77;;;;;;;;;;5033703;28;20432;-55
2021/03/14 09:50:26;;;;;;;11.70;7.97;;;;;;;;;;5033858;28;20025;-55
2021/03/14 09:52:53;;;;;;;12.60;7.80;;;;;;;;;;5033669;28;20183;-55
2021/03/14 09:55:28;;;;;;;14.67;7.90;;;;;;;;;;5033689;28;20025;-55
2021/03/14 09:57:55;;;;;;;14.55;7.45;;;;;;;;;;5033741;28;20033;-55
2021/03/14 10:00:25;;;;;;;13.37;7.73;;;;;;;;;;5033620;28;20548;-55
2021/03/14 10:02:52;;;;;;;10.33;6.80;;;;;;;;;;5033621;28;20056;-55
2021/03/14 10:05:19;;;;;;;11.10;7.37;;;;;;;;;;5033361;28;20032;-55
2021/03/14 10:07:55;;;;;;;9.43;6.70;;;;;;;;;;5033617;28;20472;-54
2021/03/14 10:10:22;;;;;;;13.57;7.10;;;;;;;;;;5033495;28;20032;-55
2021/03/14 10:12:49;;;;;;;15.70;6.87;;;;;;;;;;5033425;28;20353;-55
2021/03/14 10:15:17;;;;;;;10.00;7.10;;;;;;;;;;5033591;28;20021;-55
2021/03/14 10:17:45;;;;;;;13.90;7.47;;;;;;;;;;5033183;28;20018;-55
2021/03/14 10:20:13;;;;;;;10.43;7.07;;;;;;;;;;5033106;28;20045;-55
2021/03/14 10:22:40;;;;;;;10.13;7.07;;;;;;;;;;5033196;28;20135;-55
2021/03/14 10:25:08;;;;;;;9.50;6.50;;;;;;;;;;5033129;28;20026;-55
2021/03/14 10:27:34;;;;;;;10.77;6.13;;;;;;;;;;5033030;28;20029;-55
2021/03/14 10:30:02;;;;;;;13.77;7.37;;;;;;;;;;5033276;28;20028;-55
2021/03/14 10:32:30;;;;;;;10.47;6.83;;;;;;;;;;5033201;28;20085;-55
2021/03/14 10:34:58;;;;;;;13.27;7.67;;;;;;;;;;5033118;28;20033;-55
2021/03/14 10:37:32;;;;;;;11.07;7.43;;;;;;;;;;5033047;28;20112;-55
2021/03/14 10:39:59;;;;;;;14.90;7.20;;;;;;;;;;5033599;28;20057;-55
2021/03/14 10:42:30;;;;;;;11.33;6.90;;;;;;;;;;5033150;28;20029;-55
2021/03/14 10:45:01;;;;;;;16.00;6.80;;;;;;;;;;5033091;28;20022;-54
2021/03/14 10:47:29;;;;;;;12.93;7.33;;;;;;;;;;5033000;28;20029;-54
2021/03/14 10:50:09;;;;;;;10.17;6.90;;;;;;;;;;5032838;28;20029;-54
2021/03/14 10:52:36;;;;;;;9.87;6.97;;;;;;;;;;5032799;28;20365;-55
2021/03/14 10:55:02;;;;;;;14.20;7.77;;;;;;;;;;5032968;28;20024;-55
2021/03/14 10:57:29;;;;;;;13.07;7.83;;;;;;;;;;5032719;28;20033;-54
2021/03/14 11:00:16;;;;;;;10.03;6.47;;;;;;;;;;5032817;28;20026;-54
2021/03/14 11:02:48;;;;;;;10.83;6.73;;;;;;;;;;5032888;28;20017;-55
2021/03/14 11:05:19;;;;;;;11.33;6.63;;;;;;;;;;5032669;28;20029;-55
2021/03/14 11:07:56;;;;;;;11.47;7.30;;;;;;;;;;5032809;28;20022;-54
2021/03/14 11:10:27;;;;;;;13.40;7.40;;;;;;;;;;5032653;28;20141;-55
2021/03/14 11:12:54;;;;;;;13.07;7.70;;;;;;;;;;5032552;28;20029;-55
2021/03/14 11:15:25;;;;;;;9.33;6.63;;;;;;;;;;5032564;28;20045;-54
2021/03/14 11:17:52;;;;;;;11.80;7.47;;;;;;;;;;5032536;28;20030;-55
2021/03/14 11:20:20;;;;;;;12.13;7.00;;;;;;;;;;5032680;28;20101;-54
2021/03/14 11:22:55;;;;;;;10.90;6.87;;;;;;;;;;5032420;28;20116;-55
2021/03/14 11:25:22;;;;;;;13.52;6.93;;;;;;;;;;5032465;28;20061;-54
2021/03/14 11:27:51;;;;;;;11.27;7.60;;;;;;;;;;5032626;28;20014;-54
2021/03/14 11:30:22;;;;;;;11.17;7.23;;;;;;;;;;5032616;28;20478;-54
2021/03/14 11:32:49;;;;;;;8.83;6.37;;;;;;;;;;5032717;28;20021;-54
2021/03/14 11:35:15;;;;;;;15.13;7.23;;;;;;;;;;5032521;28;20395;-54
2021/03/14 11:37:42;;;;;;;11.10;7.30;;;;;;;;;;5036269;28;20105;-54
2021/03/14 11:40:10;;;;;;;17.03;9.70;;;;;;;;;;5037697;28;20538;-54
2021/03/14 11:42:37;;;;;;;11.70;7.23;;;;;;;;;;5036434;28;20021;-54
2021/03/14 11:45:04;;;;;;;17.10;8.00;;;;;;;;;;5036353;28;20013;-54
2021/03/14 11:47:31;;;;;;;12.10;7.90;;;;;;;;;;5036120;28;20457;-54
2021/03/14 11:49:58;;;;;;;14.70;8.17;;;;;;;;;;5036110;28;20033;-54
2021/03/14 11:52:24;;;;;;;13.77;7.53;;;;;;;;;;5036169;28;20025;-54
2021/03/14 11:54:51;;;;;;;16.73;7.10;;;;;;;;;;5036142;28;20029;-54
2021/03/14 11:57:18;;;;;;;11.10;6.60;;;;;;;;;;5036022;28;20160;-54
2021/03/14 11:59:45;;;;;;;9.53;6.63;;;;;;;;;;5036020;28;20037;-54
2021/03/14 12:02:12;;;;;;;12.67;7.10;;;;;;;;;;5036083;28;20100;-54
2021/03/14 12:04:39;;;;;;;16.60;7.43;;;;;;;;;;5035826;28;20025;-54
2021/03/14 12:07:05;;;;;;;12.70;7.33;;;;;;;;;;5035763;28;20376;-54
2021/03/14 12:09:32;;;;;;;11.70;6.93;;;;;;;;;;5035867;28;20572;-54
2021/03/14 12:12:01;;;;;;;14.60;7.20;;;;;;;;;;5035901;28;20029;-54
2021/03/14 12:14:28;;;;;;;14.47;8.40;;;;;;;;;;5035731;28;20476;-54
2021/03/14 12:16:55;;;;;;;10.53;7.53;;;;;;;;;;5035524;28;20025;-54
2021/03/14 12:19:22;;;;;;;11.00;6.77;;;;;;;;;;5035626;28;20056;-54
2021/03/14 12:21:48;;;;;;;11.47;6.70;;;;;;;;;;5035515;28;20021;-54
2021/03/14 12:24:15;;;;;;;11.43;7.03;;;;;;;;;;5035449;28;20598;-54
2021/03/14 12:26:42;;;;;;;10.43;6.47;;;;;;;;;;5035505;28;20313;-54
2021/03/14 12:29:09;;;;;;;12.63;7.40;;;;;;;;;;5035541;28;20032;-54
2021/03/14 12:31:36;;;;;;;11.83;6.50;;;;;;;;;;5035423;28;20262;-54
2021/03/14 12:34:03;;;;;;;17.87;6.50;;;;;;;;;;5035375;28;20021;-54
2021/03/14 12:36:29;;;;;;;15.33;7.73;;;;;;;;;;5035536;28;20266;-54
2021/03/14 12:38:56;;;;;;;11.53;6.93;;;;;;;;;;5035267;28;20246;-54
2021/03/14 12:41:23;;;;;;;10.80;7.10;;;;;;;;;;5036700;28;20060;-54
2021/03/14 12:43:50;;;;;;;13.57;6.60;;;;;;;;;;5035133;28;20265;-54
2021/03/14 12:46:17;;;;;;;12.23;7.43;;;;;;;;;;5035005;28;20588;-54
2021/03/14 12:48:43;;;;;;;12.20;7.40;;;;;;;;;;5035006;28;20271;-54
2021/03/14 12:51:10;;;;;;;13.03;6.60;;;;;;;;;;5034953;28;20745;-54
2021/03/14 12:53:37;;;;;;;10.93;7.33;;;;;;;;;;5035084;28;20255;-54
2021/03/14 12:56:04;;;;;;;14.00;6.70;;;;;;;;;;5034772;28;20253;-54
2021/03/14 12:58:30;;;;;;;12.87;7.43;;;;;;;;;;5034908;28;20261;-54
2021/03/14 13:00:57;;;;;;;10.63;6.77;;;;;;;;;;5034801;28;20289;-54
2021/03/14 13:03:24;;;;;;;14.00;7.80;;;;;;;;;;5034866;28;20251;-54
2021/03/14 13:05:51;;;;;;;14.77;8.53;;;;;;;;;;5034761;28;20287;-54
2021/03/14 13:08:18;;;;;;;13.60;7.63;;;;;;;;;;5034683;28;20251;-54
2021/03/14 13:10:44;;;;;;;13.57;8.60;;;;;;;;;;5034603;28;20258;-54
2021/03/14 13:13:11;;;;;;;11.77;7.30;;;;;;;;;;5034743;28;20259;-54
2021/03/14 13:15:38;;;;;;;13.57;7.17;;;;;;;;;;5034623;28;20330;-54
2021/03/14 13:18:05;;;;;;;17.43;9.17;;;;;;;;;;5034513;28;20254;-54
2021/03/14 13:20:32;;;;;;;15.20;9.97;;;;;;;;;;5034425;28;20366;-54
2021/03/14 13:22:58;;;;;;;21.40;9.37;;;;;;;;;;5034469;28;20349;-54
2021/03/14 13:25:25;;;;;;;19.27;9.80;;;;;;;;;;5034364;28;20260;-54
2021/03/14 13:27:54;;;;;;;16.57;8.47;;;;;;;;;;5034367;28;20250;-54
2021/03/14 13:30:21;;;;;;;17.37;9.80;;;;;;;;;;5034247;28;20505;-54
2021/03/14 13:32:47;;;;;;;20.60;8.43;;;;;;;;;;5034236;28;20247;-55
2021/03/14 13:35:14;;;;;;;16.37;8.87;;;;;;;;;;5034119;28;20033;-55
2021/03/14 13:37:42;;;;;;;13.53;7.60;;;;;;;;;;5034140;28;20388;-55
2021/03/14 13:40:09;;;;;;;15.17;9.13;;;;;;;;;;5035384;28;20052;-54
2021/03/14 13:42:36;;;;;;;13.87;8.13;;;;;;;;;;5034207;28;20025;-55
2021/03/14 13:45:02;;;;;;;16.80;8.67;;;;;;;;;;5034025;28;20105;-55
2021/03/14 13:47:29;;;;;;;19.43;9.37;;;;;;;;;;5033911;28;20026;-55
2021/03/14 13:49:56;;;;;;;13.00;8.80;;;;;;;;;;5033833;28;20021;-55
2021/03/14 13:52:23;;;;;;;10.53;7.00;;;;;;;;;;5033927;28;20025;-55
2021/03/14 13:54:50;;;;;;;13.20;9.03;;;;;;;;;;5033861;28;20029;-55
2021/03/14 13:57:16;;;;;;;9.90;6.70;;;;;;;;;;5034009;28;20087;-55
2021/03/14 13:59:43;;;;;;;11.67;7.43;;;;;;;;;;5033108;28;20040;-55
2021/03/14 14:02:10;;;;;;;10.73;7.00;;;;;;;;;;5033790;28;20018;-55
2021/03/14 14:04:37;;;;;;;16.80;9.37;;;;;;;;;;5033602;28;20484;-55
2021/03/14 14:07:03;;;;;;;16.33;8.23;;;;;;;;;;5033619;28;20022;-55
2021/03/14 14:09:30;;;;;;;19.00;9.83;;;;;;;;;;5033626;28;20076;-55
2021/03/14 14:11:57;;;;;;;23.50;10.10;;;;;;;;;;5033538;28;20025;-55
2021/03/14 14:14:24;;;;;;;17.80;10.67;;;;;;;;;;5033435;28;20028;-56
2021/03/14 14:16:51;;;;;;;15.83;11.40;;;;;;;;;;5033485;28;20029;-56
2021/03/14 14:19:18;;;;;;;18.80;11.33;;;;;;;;;;5015641;28;20029;-56
2021/03/14 14:21:45;;;;;;;25.77;13.87;;;;;;;;;;5033289;28;20025;-56
2021/03/14 14:24:12;;;;;;;22.50;10.83;;;;;;;;;;5033347;28;20485;-56
2021/03/14 14:26:38;;;;;;;19.30;10.50;;;;;;;;;;5033200;28;20039;-56
2021/03/14 14:29:05;;;;;;;16.27;8.77;;;;;;;;;;5033291;28;20057;-56
2021/03/14 14:31:32;;;;;;;12.67;7.90;;;;;;;;;;5033170;28;20033;-56
2021/03/14 14:33:59;;;;;;;10.33;8.27;;;;;;;;;;5033072;28;20025;-56
2021/03/14 14:36:26;;;;;;;9.10;6.90;;;;;;;;;;5033052;28;20021;-56
2021/03/14 14:38:53;;;;;;;12.63;7.50;;;;;;;;;;5032915;28;20030;-56
2021/03/14 14:41:20;;;;;;;12.13;7.27;;;;;;;;;;5034363;28;20144;-56
2021/03/14 14:43:46;;;;;;;8.17;6.00;;;;;;;;;;5033024;28;20025;-56
2021/03/14 14:46:13;;;;;;;12.17;6.33;;;;;;;;;;5032936;28;20393;-56